createdAt,value
2023-04-17T00:00:18.140Z,24.54
2023-04-17T00:01:18.124Z,24.53
2023-04-17T00:02:18.169Z,24.53
2023-04-17T00:03:18.183Z,24.53
2023-04-17T00:04:18.336Z,24.53
2023-04-17T00:05:18.180Z,24.54
2023-04-17T00:06:18.128Z,24.53
2023-04-17T00:07:18.174Z,24.55
2023-04-17T00:08:18.183Z,24.55
2023-04-17T00:09:18.224Z,24.54
2023-04-17T00:10:18.277Z,24.53
2023-04-17T00:11:18.824Z,24.54
2023-04-17T00:12:18.321Z,24.56
2023-04-17T00:13:18.347Z,24.54
2023-04-17T00:14:18.373Z,24.55
2023-04-17T00:15:18.413Z,24.55
2023-04-17T00:16:18.490Z,24.56
2023-04-17T00:17:18.534Z,24.54
2023-04-17T00:18:18.493Z,24.55
2023-04-17T00:19:18.526Z,24.56
2023-04-17T00:20:18.566Z,24.55
2023-04-17T00:21:18.587Z,24.57
2023-04-17T00:22:18.629Z,24.58
2023-04-17T00:23:18.644Z,24.55
2023-04-17T00:24:18.676Z,24.56
2023-04-17T00:25:18.699Z,24.58
2023-04-17T00:26:18.731Z,24.55
2023-04-17T00:27:18.773Z,24.56
2023-04-17T00:28:18.827Z,24.58
2023-04-17T00:29:18.832Z,24.57
2023-04-17T00:30:18.855Z,24.57
2023-04-17T00:31:19.038Z,24.57
2023-04-17T00:32:18.926Z,24.55
2023-04-17T00:33:18.962Z,24.57
2023-04-17T00:34:19.001Z,24.58
2023-04-17T00:35:19.036Z,24.57
2023-04-17T00:36:19.088Z,24.56
2023-04-17T00:37:19.095Z,24.57
2023-04-17T00:38:19.148Z,24.58
2023-04-17T00:39:19.175Z,24.57
2023-04-17T00:40:19.238Z,24.57
2023-04-17T00:41:19.270Z,24.56
2023-04-17T00:42:19.302Z,24.57
2023-04-17T00:43:19.332Z,24.57
2023-04-17T00:44:19.377Z,24.59
2023-04-17T00:45:19.413Z,24.57
2023-04-17T00:46:19.560Z,24.58
2023-04-17T00:47:19.503Z,24.57
2023-04-17T00:48:19.534Z,24.58
2023-04-17T00:49:19.554Z,24.60
2023-04-17T00:50:19.610Z,24.60
2023-04-17T00:51:19.620Z,24.59
2023-04-17T00:52:19.673Z,24.57
2023-04-17T00:53:19.700Z,24.58
2023-04-17T00:54:19.726Z,24.59
2023-04-17T00:55:19.763Z,24.57
2023-04-17T00:56:19.798Z,24.59
2023-04-17T00:57:19.836Z,24.57
2023-04-17T00:58:19.866Z,24.57
2023-04-17T00:59:19.901Z,24.57
2023-04-17T01:00:19.942Z,24.57
2023-04-17T01:01:20.097Z,24.60
2023-04-17T01:02:20.003Z,24.60
2023-04-17T01:03:20.092Z,24.59
2023-04-17T01:04:20.062Z,24.58
2023-04-17T01:05:19.920Z,24.57
2023-04-17T01:06:19.909Z,24.56
2023-04-17T01:07:19.953Z,24.56
2023-04-17T01:08:19.948Z,24.59
2023-04-17T01:09:19.924Z,24.58
2023-04-17T01:10:19.933Z,24.58
2023-04-17T01:11:19.929Z,24.57
2023-04-17T01:12:19.981Z,24.57
2023-04-17T01:13:19.927Z,24.56
2023-04-17T01:14:19.944Z,24.57
2023-04-17T01:15:19.945Z,24.56
2023-04-17T01:16:20.016Z,24.57
2023-04-17T01:17:20.028Z,24.55
2023-04-17T01:18:20.046Z,24.57
2023-04-17T01:19:20.186Z,24.58
2023-04-17T01:20:20.198Z,24.56
2023-04-17T01:21:20.189Z,24.57
2023-04-17T01:22:20.256Z,24.57
2023-04-17T01:23:20.219Z,24.56
2023-04-17T01:24:20.226Z,24.56
2023-04-17T01:25:20.278Z,24.56
2023-04-17T01:26:20.298Z,24.57
2023-04-17T01:27:20.310Z,24.56
2023-04-17T01:28:20.404Z,24.57
2023-04-17T01:29:20.372Z,24.56
2023-04-17T01:30:20.407Z,24.56
2023-04-17T01:31:20.479Z,24.56
2023-04-17T01:32:20.491Z,24.56
2023-04-17T01:33:20.515Z,24.56
2023-04-17T01:34:20.554Z,24.57
2023-04-17T01:35:20.581Z,24.58
2023-04-17T01:36:20.631Z,24.56
2023-04-17T01:37:20.642Z,24.57
2023-04-17T01:38:20.699Z,24.56
2023-04-17T01:39:20.702Z,24.56
2023-04-17T01:40:20.731Z,24.55
2023-04-17T01:41:20.772Z,24.57
2023-04-17T01:42:20.801Z,24.55
2023-04-17T01:43:20.832Z,24.56
2023-04-17T01:44:20.884Z,24.57
2023-04-17T01:45:20.919Z,24.58
2023-04-17T01:46:20.949Z,24.58
2023-04-17T01:47:21.030Z,24.55
2023-04-17T01:48:21.030Z,24.56
2023-04-17T01:49:21.036Z,24.56
2023-04-17T01:50:21.070Z,24.57
2023-04-17T01:51:21.142Z,24.58
2023-04-17T01:52:21.140Z,24.55
2023-04-17T01:53:21.165Z,24.57
2023-04-17T01:54:21.287Z,24.59
2023-04-17T01:55:21.252Z,24.56
2023-04-17T01:56:21.332Z,24.58
2023-04-17T01:57:21.336Z,24.59
2023-04-17T01:58:21.353Z,24.58
2023-04-17T01:59:21.386Z,24.59
2023-04-17T02:00:21.432Z,24.58
2023-04-17T02:01:21.496Z,24.57
2023-04-17T02:02:21.589Z,24.58
2023-04-17T02:03:21.649Z,24.58
2023-04-17T02:04:21.672Z,24.58
2023-04-17T02:05:21.618Z,24.57
2023-04-17T02:06:21.661Z,24.56
2023-04-17T02:07:21.695Z,24.56
2023-04-17T02:08:21.710Z,24.57
2023-04-17T02:09:21.758Z,24.57
2023-04-17T02:10:21.789Z,24.59
2023-04-17T02:11:21.825Z,24.59
2023-04-17T02:12:21.850Z,24.57
2023-04-17T02:13:21.886Z,24.58
2023-04-17T02:14:21.926Z,24.59
2023-04-17T02:15:21.948Z,24.58
2023-04-17T02:16:22.068Z,24.60
2023-04-17T02:17:22.065Z,24.58
2023-04-17T02:18:22.038Z,24.58
2023-04-17T02:19:22.080Z,24.58
2023-04-17T02:20:22.095Z,24.59
2023-04-17T02:21:22.138Z,24.60
2023-04-17T02:22:22.180Z,24.58
2023-04-17T02:23:22.200Z,24.59
2023-04-17T02:24:22.225Z,24.57
2023-04-17T02:25:22.256Z,24.55
2023-04-17T02:26:22.308Z,24.56
2023-04-17T02:27:22.321Z,24.57
2023-04-17T02:28:22.405Z,24.58
2023-04-17T02:29:22.399Z,24.56
2023-04-17T02:30:22.426Z,24.57
2023-04-17T02:31:22.521Z,24.58
2023-04-17T02:32:22.530Z,24.58
2023-04-17T02:33:22.533Z,24.57
2023-04-17T02:34:22.594Z,24.56
2023-04-17T02:35:22.630Z,24.57
2023-04-17T02:36:22.647Z,24.56
2023-04-17T02:37:22.685Z,24.55
2023-04-17T02:38:22.720Z,24.56
2023-04-17T02:39:22.750Z,24.56
2023-04-17T02:40:22.786Z,24.56
2023-04-17T02:41:22.826Z,24.57
2023-04-17T02:42:22.858Z,24.55
2023-04-17T02:43:22.890Z,24.56
2023-04-17T02:44:22.935Z,24.56
2023-04-17T02:45:22.965Z,24.57
2023-04-17T02:46:23.073Z,24.55
2023-04-17T02:47:23.098Z,24.58
2023-04-17T02:48:23.074Z,24.56
2023-04-17T02:49:23.095Z,24.55
2023-04-17T02:50:23.117Z,24.54
2023-04-17T02:51:23.149Z,24.55
2023-04-17T02:52:23.173Z,24.54
2023-04-17T02:53:23.206Z,24.55
2023-04-17T02:54:23.232Z,24.56
2023-04-17T02:55:23.269Z,24.55
2023-04-17T02:56:23.304Z,24.55
2023-04-17T02:57:23.335Z,24.54
2023-04-17T02:58:23.364Z,24.53
2023-04-17T02:59:23.406Z,24.54
2023-04-17T03:00:23.457Z,24.53
2023-04-17T03:01:23.555Z,24.55
2023-04-17T03:02:23.569Z,24.54
2023-04-17T03:03:23.655Z,24.55
2023-04-17T03:04:23.691Z,24.54
2023-04-17T03:05:23.623Z,24.53
2023-04-17T03:06:23.649Z,24.51
2023-04-17T03:07:23.702Z,24.50
2023-04-17T03:08:23.732Z,24.51
2023-04-17T03:09:23.768Z,24.50
2023-04-17T03:10:23.778Z,24.49
2023-04-17T03:11:23.828Z,24.50
2023-04-17T03:12:23.880Z,24.49
2023-04-17T03:13:23.938Z,24.50
2023-04-17T03:14:23.980Z,24.47
2023-04-17T03:15:23.984Z,24.50
2023-04-17T03:16:24.022Z,24.48
2023-04-17T03:17:24.039Z,24.47
2023-04-17T03:18:23.985Z,24.48
2023-04-17T03:19:24.012Z,24.49
2023-04-17T03:20:23.984Z,24.47
2023-04-17T03:21:23.999Z,24.47
2023-04-17T03:22:23.987Z,24.47
2023-04-17T03:23:23.994Z,24.46
2023-04-17T03:24:23.990Z,24.48
2023-04-17T03:25:23.994Z,24.47
2023-04-17T03:26:24.004Z,24.49
2023-04-17T03:27:23.992Z,24.47
2023-04-17T03:28:24.000Z,24.47
2023-04-17T03:29:23.992Z,24.45
2023-04-17T03:30:24.047Z,24.46
2023-04-17T03:31:24.523Z,24.46
2023-04-17T03:32:24.104Z,24.46
2023-04-17T03:33:24.123Z,24.47
2023-04-17T03:34:24.178Z,24.46
2023-04-17T03:35:24.200Z,24.46
2023-04-17T03:36:24.236Z,24.46
2023-04-17T03:37:24.284Z,24.48
2023-04-17T03:38:24.295Z,24.46
2023-04-17T03:39:24.357Z,24.46
2023-04-17T03:40:24.404Z,24.47
2023-04-17T03:41:24.358Z,24.46
2023-04-17T03:42:24.367Z,24.45
2023-04-17T03:43:24.364Z,24.47
2023-04-17T03:44:24.377Z,24.43
2023-04-17T03:45:24.373Z,24.46
2023-04-17T03:46:24.487Z,24.44
2023-04-17T03:47:24.406Z,24.46
2023-04-17T03:48:24.379Z,24.45
2023-04-17T03:49:24.380Z,24.45
2023-04-17T03:50:24.394Z,24.43
2023-04-17T03:51:24.425Z,24.45
2023-04-17T03:52:24.548Z,24.43
2023-04-17T03:53:24.488Z,24.44
2023-04-17T03:54:24.523Z,24.44
2023-04-17T03:55:24.557Z,24.43
2023-04-17T03:56:24.599Z,24.44
2023-04-17T03:57:24.626Z,24.43
2023-04-17T03:58:24.657Z,24.43
2023-04-17T03:59:24.694Z,24.44
2023-04-17T04:00:24.692Z,24.44
2023-04-17T04:01:24.699Z,24.42
2023-04-17T04:02:24.856Z,24.42
2023-04-17T04:03:24.923Z,24.41
2023-04-17T04:04:24.881Z,24.40
2023-04-17T04:05:24.856Z,24.43
2023-04-17T04:06:24.724Z,24.41
2023-04-17T04:07:24.736Z,24.39
2023-04-17T04:08:24.731Z,24.40
2023-04-17T04:09:24.730Z,24.41
2023-04-17T04:10:24.747Z,24.40
2023-04-17T04:11:24.781Z,24.40
2023-04-17T04:12:24.753Z,24.41
2023-04-17T04:13:24.849Z,24.40
2023-04-17T04:14:24.773Z,24.39
2023-04-17T04:15:24.777Z,24.40
2023-04-17T04:16:24.871Z,24.41
2023-04-17T04:17:24.956Z,24.40
2023-04-17T04:18:24.895Z,24.39
2023-04-17T04:19:24.915Z,24.40
2023-04-17T04:20:24.969Z,24.41
2023-04-17T04:21:24.993Z,24.40
2023-04-17T04:22:25.066Z,24.40
2023-04-17T04:23:25.134Z,24.42
2023-04-17T04:24:25.139Z,24.41
2023-04-17T04:25:25.182Z,24.42
2023-04-17T04:26:25.199Z,24.40
2023-04-17T04:27:25.283Z,24.39
2023-04-17T04:28:25.270Z,24.42
2023-04-17T04:29:25.404Z,24.44
2023-04-17T04:30:25.346Z,24.40
2023-04-17T04:31:25.431Z,24.43
2023-04-17T04:32:25.468Z,24.40
2023-04-17T04:33:25.465Z,24.40
2023-04-17T04:34:25.506Z,24.40
2023-04-17T04:35:25.543Z,24.39
2023-04-17T04:36:25.685Z,24.41
2023-04-17T04:37:25.690Z,24.41
2023-04-17T04:38:25.716Z,24.40
2023-04-17T04:39:25.730Z,24.41
2023-04-17T04:40:25.771Z,24.40
2023-04-17T04:41:25.682Z,24.41
2023-04-17T04:42:25.777Z,24.40
2023-04-17T04:43:25.712Z,24.41
2023-04-17T04:44:25.718Z,24.41
2023-04-17T04:45:25.825Z,24.41
2023-04-17T04:46:25.754Z,24.42
2023-04-17T04:47:25.765Z,24.42
2023-04-17T04:48:25.725Z,24.41
2023-04-17T04:49:25.727Z,24.42
2023-04-17T04:50:25.736Z,24.43
2023-04-17T04:51:25.733Z,24.42
2023-04-17T04:52:25.808Z,24.42
2023-04-17T04:53:25.841Z,24.41
2023-04-17T04:54:25.887Z,24.43
2023-04-17T04:55:25.997Z,24.42
2023-04-17T04:56:25.968Z,24.40
2023-04-17T04:57:26.137Z,24.42
2023-04-17T04:58:26.036Z,24.40
2023-04-17T04:59:26.075Z,24.40
2023-04-17T05:00:26.087Z,24.40
2023-04-17T05:01:26.205Z,24.40
2023-04-17T05:02:26.382Z,24.40
2023-04-17T05:03:26.256Z,24.39
2023-04-17T05:04:26.300Z,24.39
2023-04-17T05:05:26.174Z,24.42
2023-04-17T05:06:26.170Z,24.40
2023-04-17T05:07:26.193Z,24.41
2023-04-17T05:08:26.204Z,24.39
2023-04-17T05:09:26.208Z,24.39
2023-04-17T05:10:26.230Z,24.39
2023-04-17T05:11:26.239Z,24.39
2023-04-17T05:12:26.263Z,24.39
2023-04-17T05:13:26.304Z,24.38
2023-04-17T05:14:26.349Z,24.36
2023-04-17T05:15:26.387Z,24.37
2023-04-17T05:16:26.453Z,24.36
2023-04-17T05:17:26.516Z,24.35
2023-04-17T05:18:26.531Z,24.36
2023-04-17T05:19:26.569Z,24.36
2023-04-17T05:20:26.621Z,24.34
2023-04-17T05:21:27.090Z,24.36
2023-04-17T05:22:26.705Z,24.35
2023-04-17T05:23:26.759Z,24.34
2023-04-17T05:24:26.780Z,24.32
2023-04-17T05:25:26.831Z,24.32
2023-04-17T05:26:26.885Z,24.32
2023-04-17T05:27:26.967Z,24.31
2023-04-17T05:28:26.949Z,24.33
2023-04-17T05:29:26.997Z,24.30
2023-04-17T05:30:27.069Z,24.31
2023-04-17T05:31:27.163Z,24.30
2023-04-17T05:32:27.151Z,24.31
2023-04-17T05:33:27.260Z,24.31
2023-04-17T05:34:27.256Z,24.30
2023-04-17T05:35:27.291Z,24.31
2023-04-17T05:36:27.264Z,24.30
2023-04-17T05:37:27.242Z,24.30
2023-04-17T05:38:27.289Z,24.31
2023-04-17T05:39:27.280Z,24.31
2023-04-17T05:40:27.310Z,24.31
2023-04-17T05:41:27.294Z,24.31
2023-04-17T05:42:27.316Z,24.30
2023-04-17T05:43:27.320Z,24.30
2023-04-17T05:44:27.283Z,24.29
2023-04-17T05:45:27.371Z,24.30
2023-04-17T05:46:27.356Z,24.30
2023-04-17T05:47:27.369Z,24.31
2023-04-17T05:48:27.350Z,24.30
2023-04-17T05:49:27.331Z,24.30
2023-04-17T05:50:27.330Z,24.27
2023-04-17T05:51:27.367Z,24.29
2023-04-17T05:52:27.398Z,24.29
2023-04-17T05:53:27.440Z,24.29
2023-04-17T05:54:27.427Z,24.28
2023-04-17T05:55:27.444Z,24.28
2023-04-17T05:56:27.487Z,24.29
2023-04-17T05:57:27.481Z,24.28
2023-04-17T05:58:27.649Z,24.28
2023-04-17T05:59:27.517Z,24.27
2023-04-17T06:00:27.476Z,24.28
2023-04-17T06:01:27.479Z,24.30
2023-04-17T06:02:27.657Z,24.30
2023-04-17T06:03:27.768Z,24.28
2023-04-17T06:04:27.668Z,24.27
2023-04-17T06:05:27.583Z,24.28
2023-04-17T06:06:27.505Z,24.25
2023-04-17T06:07:27.933Z,24.26
2023-04-17T06:08:27.525Z,24.26
2023-04-17T06:09:27.594Z,24.24
2023-04-17T06:10:27.652Z,24.24
2023-04-17T06:11:27.671Z,24.24
2023-04-17T06:12:27.701Z,24.23
2023-04-17T06:13:27.771Z,24.23
2023-04-17T06:14:27.848Z,24.24
2023-04-17T06:15:28.187Z,24.22
2023-04-17T06:16:27.929Z,24.23
2023-04-17T06:17:27.993Z,24.23
2023-04-17T06:18:27.977Z,24.24
2023-04-17T06:19:27.926Z,24.23
2023-04-17T06:20:27.987Z,24.24
2023-04-17T06:21:27.928Z,24.23
2023-04-17T06:22:27.926Z,24.22
2023-04-17T06:23:27.938Z,24.23
2023-04-17T06:24:27.929Z,24.23
2023-04-17T06:25:27.938Z,24.22
2023-04-17T06:26:27.920Z,24.21
2023-04-17T06:27:27.927Z,24.21
2023-04-17T06:28:27.923Z,24.21
2023-04-17T06:29:27.907Z,24.23
2023-04-17T06:30:27.936Z,24.22
2023-04-17T06:31:27.992Z,24.22
2023-04-17T06:32:27.970Z,24.24
2023-04-17T06:33:28.024Z,24.21
2023-04-17T06:34:28.049Z,24.21
2023-04-17T06:35:28.125Z,24.20
2023-04-17T06:36:28.128Z,24.19
2023-04-17T06:37:28.154Z,24.17
2023-04-17T06:38:28.193Z,24.19
2023-04-17T06:39:28.234Z,24.21
2023-04-17T06:40:28.308Z,24.21
2023-04-17T06:41:28.330Z,24.17
2023-04-17T06:42:28.364Z,24.19
2023-04-17T06:43:28.373Z,24.18
2023-04-17T06:44:28.368Z,24.16
2023-04-17T06:45:28.408Z,24.15
2023-04-17T06:46:28.461Z,24.17
2023-04-17T06:47:28.614Z,24.16
2023-04-17T06:48:28.542Z,24.15
2023-04-17T06:49:28.581Z,24.14
2023-04-17T06:50:28.619Z,24.15
2023-04-17T06:51:28.666Z,24.17
2023-04-17T06:52:28.864Z,24.15
2023-04-17T06:53:28.738Z,24.14
2023-04-17T06:54:28.796Z,24.16
2023-04-17T06:55:28.845Z,24.15
2023-04-17T06:56:28.886Z,24.14
2023-04-17T06:57:28.898Z,24.13
2023-04-17T06:58:28.938Z,24.15
2023-04-17T06:59:28.989Z,24.12
2023-04-17T07:00:29.052Z,24.14
2023-04-17T07:01:29.196Z,24.14
2023-04-17T07:02:29.233Z,24.14
2023-04-17T07:03:29.262Z,24.14
2023-04-17T07:04:29.260Z,24.12
2023-04-17T07:05:29.276Z,24.12
2023-04-17T07:06:29.299Z,24.12
2023-04-17T07:07:29.327Z,24.13
2023-04-17T07:08:29.359Z,24.09
2023-04-17T07:09:29.429Z,24.12
2023-04-17T07:10:29.460Z,24.13
2023-04-17T07:11:29.513Z,24.10
2023-04-17T07:12:29.645Z,24.12
2023-04-17T07:13:29.573Z,24.10
2023-04-17T07:14:29.617Z,24.10
2023-04-17T07:15:29.762Z,24.08
2023-04-17T07:16:29.717Z,24.10
2023-04-17T07:17:29.754Z,24.09
2023-04-17T07:18:29.809Z,24.07
2023-04-17T07:19:29.823Z,24.08
2023-04-17T07:20:29.890Z,24.08
2023-04-17T07:21:29.904Z,24.06
2023-04-17T07:22:29.928Z,24.07
2023-04-17T07:23:29.972Z,24.06
2023-04-17T07:24:30.029Z,24.06
2023-04-17T07:25:30.109Z,24.04
2023-04-17T07:26:30.105Z,24.05
2023-04-17T07:27:30.141Z,24.05
2023-04-17T07:28:30.177Z,24.05
2023-04-17T07:29:30.208Z,24.06
2023-04-17T07:30:30.240Z,24.04
2023-04-17T07:31:30.338Z,24.04
2023-04-17T07:32:30.331Z,24.04
2023-04-17T07:33:30.324Z,24.03
2023-04-17T07:34:30.326Z,24.05
2023-04-17T07:35:30.361Z,24.04
2023-04-17T07:36:30.333Z,24.04
2023-04-17T07:37:30.329Z,24.04
2023-04-17T07:38:30.320Z,24.01
2023-04-17T07:39:30.342Z,24.04
2023-04-17T07:40:30.332Z,24.02
2023-04-17T07:41:30.346Z,23.99
2023-04-17T07:42:30.337Z,23.97
2023-04-17T07:43:30.336Z,23.96
2023-04-17T07:44:30.376Z,24.01
2023-04-17T07:45:30.373Z,23.99
2023-04-17T07:46:30.422Z,23.95
2023-04-17T07:47:30.383Z,23.96
2023-04-17T07:48:30.346Z,23.95
2023-04-17T07:49:30.355Z,23.95
2023-04-17T07:50:30.351Z,23.95
2023-04-17T07:51:30.352Z,23.95
2023-04-17T07:52:30.356Z,23.95
2023-04-17T07:53:30.359Z,23.93
2023-04-17T07:54:30.358Z,23.96
2023-04-17T07:55:30.374Z,23.92
2023-04-17T07:56:30.356Z,23.92
2023-04-17T07:57:30.568Z,23.93
2023-04-17T07:58:30.364Z,23.92
2023-04-17T07:59:30.439Z,23.93
2023-04-17T08:00:30.459Z,23.92
2023-04-17T08:01:30.511Z,23.92
2023-04-17T08:02:30.619Z,23.93
2023-04-17T08:03:30.794Z,23.91
2023-04-17T08:04:30.793Z,23.93
2023-04-17T08:05:30.677Z,23.92
2023-04-17T08:06:30.697Z,23.93
2023-04-17T08:07:30.756Z,23.92
2023-04-17T08:08:30.792Z,23.94
2023-04-17T08:09:30.823Z,23.93
2023-04-17T08:10:30.844Z,23.90
2023-04-17T08:11:30.890Z,23.91
2023-04-17T08:12:30.958Z,23.91
2023-04-17T08:13:30.959Z,23.91
2023-04-17T08:14:31.001Z,23.92
2023-04-17T08:15:31.049Z,23.92
2023-04-17T08:16:31.144Z,23.93
2023-04-17T08:17:31.161Z,23.93
2023-04-17T08:18:31.144Z,23.92
2023-04-17T08:19:31.176Z,23.93
2023-04-17T08:20:31.224Z,23.93
2023-04-17T08:21:31.255Z,23.94
2023-04-17T08:22:32.188Z,23.93
2023-04-17T08:23:31.364Z,23.93
2023-04-17T08:24:31.388Z,23.93
2023-04-17T08:25:31.429Z,23.93
2023-04-17T08:26:31.437Z,23.93
2023-04-17T08:27:31.446Z,23.93
2023-04-17T08:28:31.469Z,23.93
2023-04-17T08:29:31.524Z,23.93
2023-04-17T08:30:31.581Z,23.95
2023-04-17T08:31:31.750Z,23.94
2023-04-17T08:32:31.674Z,23.94
2023-04-17T08:33:31.641Z,23.95
2023-04-17T08:34:31.654Z,23.93
2023-04-17T08:35:31.626Z,23.92
2023-04-17T08:36:31.618Z,23.93
2023-04-17T08:37:31.622Z,23.91
2023-04-17T08:38:31.626Z,23.95
2023-04-17T08:39:31.647Z,23.94
2023-04-17T08:40:31.655Z,23.95
2023-04-17T08:41:31.656Z,23.93
2023-04-17T08:42:31.623Z,23.93
2023-04-17T08:43:31.619Z,23.94
2023-04-17T08:44:31.714Z,23.93
2023-04-17T08:45:31.956Z,23.90
2023-04-17T08:46:31.690Z,23.90
2023-04-17T08:47:31.656Z,23.91
2023-04-17T08:48:31.639Z,23.91
2023-04-17T08:49:31.660Z,23.92
2023-04-17T08:50:31.641Z,23.90
2023-04-17T08:51:31.661Z,23.90
2023-04-17T08:52:31.661Z,23.95
2023-04-17T08:53:31.665Z,23.97
2023-04-17T08:54:31.810Z,23.99
2023-04-17T08:55:31.670Z,24.00
2023-04-17T08:56:31.664Z,23.99
2023-04-17T08:57:31.669Z,23.97
2023-04-17T08:58:31.785Z,23.96
2023-04-17T08:59:31.682Z,23.94
2023-04-17T09:00:31.683Z,23.95
2023-04-17T09:01:31.735Z,23.95
2023-04-17T09:02:31.830Z,23.90
2023-04-17T09:03:31.854Z,23.91
2023-04-17T09:04:31.791Z,23.93
2023-04-17T09:05:31.706Z,23.91
2023-04-17T09:06:31.746Z,23.90
2023-04-17T09:07:31.789Z,23.89
2023-04-17T09:08:31.860Z,23.87
2023-04-17T09:09:31.852Z,23.87
2023-04-17T09:10:31.892Z,23.87
2023-04-17T09:11:31.902Z,23.87
2023-04-17T09:12:31.940Z,23.84
2023-04-17T09:13:31.966Z,23.85
2023-04-17T09:14:31.930Z,23.88
2023-04-17T09:15:31.940Z,23.89
2023-04-17T09:16:31.989Z,23.88
2023-04-17T09:17:31.941Z,23.89
2023-04-17T09:18:31.918Z,23.88
2023-04-17T09:19:34.642Z,23.88
2023-04-17T09:20:31.920Z,23.85
2023-04-17T09:21:31.880Z,23.85
2023-04-17T09:22:31.910Z,23.85
2023-04-17T09:23:31.890Z,23.87
2023-04-17T09:24:31.888Z,23.85
2023-04-17T09:25:31.924Z,23.86
2023-04-17T09:26:31.906Z,23.85
2023-04-17T09:27:31.900Z,23.87
2023-04-17T09:28:31.905Z,23.86
2023-04-17T09:29:31.936Z,23.84
2023-04-17T09:30:31.951Z,23.86
2023-04-17T09:31:31.984Z,23.85
2023-04-17T09:32:31.985Z,23.88
2023-04-17T09:33:31.959Z,23.87
2023-04-17T09:34:32.078Z,23.87
2023-04-17T09:35:31.940Z,23.84
2023-04-17T09:36:31.950Z,23.86
2023-04-17T09:37:31.977Z,23.85
2023-04-17T09:38:31.967Z,23.85
2023-04-17T09:39:31.946Z,23.86
2023-04-17T09:40:31.993Z,23.86
2023-04-17T09:41:31.951Z,23.82
2023-04-17T09:42:31.947Z,23.84
2023-04-17T09:43:31.963Z,23.83
2023-04-17T09:44:31.957Z,23.85
2023-04-17T09:45:31.967Z,23.84
2023-04-17T09:46:31.986Z,23.84
2023-04-17T09:47:31.998Z,23.81
2023-04-17T09:48:31.958Z,23.81
2023-04-17T09:49:32.084Z,23.81
2023-04-17T09:50:31.965Z,23.82
2023-04-17T09:51:31.929Z,23.82
2023-04-17T09:52:31.933Z,23.83
2023-04-17T09:53:31.918Z,23.84
2023-04-17T09:54:31.964Z,23.83
2023-04-17T09:55:31.928Z,23.81
2023-04-17T09:56:31.922Z,23.83
2023-04-17T09:57:31.903Z,23.84
2023-04-17T09:58:31.906Z,23.83
2023-04-17T09:59:31.924Z,23.82
2023-04-17T10:00:32.053Z,23.82
2023-04-17T10:01:32.090Z,23.84
2023-04-17T10:02:32.174Z,23.83
2023-04-17T10:03:33.623Z,23.82
2023-04-17T10:04:32.122Z,23.83
2023-04-17T10:05:32.116Z,23.80
2023-04-17T10:06:32.054Z,23.81
2023-04-17T10:07:32.049Z,23.81
2023-04-17T10:08:32.075Z,23.83
2023-04-17T10:09:32.055Z,23.84
2023-04-17T10:10:32.071Z,23.84
2023-04-17T10:11:32.083Z,23.82
2023-04-17T10:12:33.849Z,23.82
2023-04-17T10:13:32.050Z,23.81
2023-04-17T10:14:32.052Z,23.82
2023-04-17T10:15:32.074Z,23.82
2023-04-17T10:16:32.102Z,23.82
2023-04-17T10:17:32.200Z,23.80
2023-04-17T10:18:32.068Z,23.81
2023-04-17T10:19:32.059Z,23.82
2023-04-17T10:20:32.064Z,23.82
2023-04-17T10:21:32.163Z,23.82
2023-04-17T10:22:32.045Z,23.81
2023-04-17T10:23:32.072Z,23.81
2023-04-17T10:24:32.055Z,23.81
2023-04-17T10:25:32.048Z,23.83
2023-04-17T10:26:32.044Z,23.81
2023-04-17T10:27:32.038Z,23.83
2023-04-17T10:28:32.042Z,23.80
2023-04-17T10:29:32.069Z,23.83
2023-04-17T10:30:32.052Z,23.83
2023-04-17T10:31:32.054Z,23.83
2023-04-17T10:32:32.128Z,23.82
2023-04-17T10:33:32.016Z,23.82
2023-04-17T10:34:32.062Z,23.83
2023-04-17T10:35:32.091Z,23.83
2023-04-17T10:36:32.104Z,23.80
2023-04-17T10:37:32.121Z,23.82
2023-04-17T10:38:32.161Z,23.82
2023-04-17T10:39:32.176Z,23.81
2023-04-17T10:40:32.231Z,23.82
2023-04-17T10:41:32.245Z,23.81
2023-04-17T10:42:32.262Z,23.82
2023-04-17T10:43:32.251Z,23.80
2023-04-17T10:44:32.280Z,23.80
2023-04-17T10:45:32.340Z,23.80
2023-04-17T10:46:32.409Z,23.82
2023-04-17T10:47:32.373Z,23.82
2023-04-17T10:48:32.272Z,23.84
2023-04-17T10:49:32.225Z,23.83
2023-04-17T10:50:32.249Z,23.84
2023-04-17T10:51:32.231Z,23.84
2023-04-17T10:52:32.250Z,23.81
2023-04-17T10:53:32.232Z,23.82
2023-04-17T10:54:32.247Z,23.82
2023-04-17T10:55:32.224Z,23.80
2023-04-17T10:56:32.224Z,23.82
2023-04-17T10:57:32.216Z,23.83
2023-04-17T10:58:32.248Z,23.80
2023-04-17T10:59:32.224Z,23.81
2023-04-17T11:00:32.241Z,23.82
2023-04-17T11:01:32.399Z,23.82
2023-04-17T11:02:32.395Z,23.82
2023-04-17T11:03:32.359Z,23.80
2023-04-17T11:04:32.378Z,23.81
2023-04-17T11:05:32.388Z,23.80
2023-04-17T11:06:32.407Z,23.82
2023-04-17T11:07:32.429Z,23.79
2023-04-17T11:08:32.479Z,23.79
2023-04-17T11:09:32.483Z,23.80
2023-04-17T11:10:32.515Z,23.80
2023-04-17T11:11:43.438Z,23.82
2023-04-17T11:12:33.510Z,23.83
2023-04-17T11:13:32.488Z,23.81
2023-04-17T11:14:32.509Z,23.81
2023-04-17T11:15:32.505Z,23.81
2023-04-17T11:16:32.555Z,23.81
2023-04-17T11:17:32.478Z,23.80
2023-04-17T11:18:32.458Z,23.81
2023-04-17T11:19:32.472Z,23.81
2023-04-17T11:20:32.466Z,23.82
2023-04-17T11:21:32.502Z,23.81
2023-04-17T11:22:32.417Z,23.81
2023-04-17T11:23:32.426Z,23.82
2023-04-17T11:24:32.449Z,23.79
2023-04-17T11:25:32.405Z,23.82
2023-04-17T11:26:32.550Z,23.81
2023-04-17T11:27:32.430Z,23.79
2023-04-17T11:28:32.429Z,23.78
2023-04-17T11:29:32.526Z,23.80
2023-04-17T11:30:32.480Z,23.79
2023-04-17T11:31:32.547Z,23.78
2023-04-17T11:32:32.834Z,23.79
2023-04-17T11:33:32.571Z,23.80
2023-04-17T11:34:32.594Z,23.78
2023-04-17T11:35:32.595Z,23.78
2023-04-17T11:36:32.633Z,23.78
2023-04-17T11:37:32.644Z,23.79
2023-04-17T11:38:32.805Z,23.80
2023-04-17T11:39:32.702Z,23.77
2023-04-17T11:40:32.740Z,23.76
2023-04-17T11:41:32.786Z,23.77
2023-04-17T11:42:32.856Z,23.75
2023-04-17T11:43:32.828Z,23.75
2023-04-17T11:44:32.865Z,23.75
2023-04-17T11:45:32.879Z,23.72
2023-04-17T11:46:32.946Z,23.73
2023-04-17T11:47:32.916Z,23.73
2023-04-17T11:48:32.994Z,23.72
2023-04-17T11:49:32.985Z,23.72
2023-04-17T11:50:33.039Z,23.74
2023-04-17T11:51:33.014Z,23.74
2023-04-17T11:52:33.047Z,23.77
2023-04-17T11:53:33.062Z,23.76
2023-04-17T11:54:33.112Z,23.75
2023-04-17T11:55:33.185Z,23.76
2023-04-17T11:56:33.141Z,23.78
2023-04-17T11:57:33.231Z,23.76
2023-04-17T11:58:33.150Z,23.75
2023-04-17T11:59:33.150Z,23.78
2023-04-17T12:00:33.179Z,23.75
2023-04-17T12:01:33.174Z,23.76
2023-04-17T12:02:33.247Z,23.77
2023-04-17T12:03:33.333Z,23.76
2023-04-17T12:04:33.227Z,23.76
2023-04-17T12:05:33.153Z,23.76
2023-04-17T12:06:33.167Z,23.73
2023-04-17T12:07:33.123Z,23.76
2023-04-17T12:08:33.123Z,23.75
2023-04-17T12:09:33.225Z,23.74
2023-04-17T12:10:33.110Z,23.73
2023-04-17T12:11:33.165Z,23.76
2023-04-17T12:12:33.098Z,23.73
2023-04-17T12:13:33.117Z,23.72
2023-04-17T12:14:33.146Z,23.72
2023-04-17T12:15:33.138Z,23.72
2023-04-17T12:16:33.342Z,23.72
2023-04-17T12:17:33.245Z,23.71
2023-04-17T12:18:33.211Z,23.74
2023-04-17T12:19:33.249Z,23.73
2023-04-17T12:20:33.257Z,23.76
2023-04-17T12:21:33.296Z,23.75
2023-04-17T12:22:33.328Z,23.76
2023-04-17T12:23:33.335Z,23.73
2023-04-17T12:24:33.365Z,23.74
2023-04-17T12:25:33.376Z,23.75
2023-04-17T12:26:33.404Z,23.77
2023-04-17T12:27:33.368Z,23.75
2023-04-17T12:28:33.370Z,23.75
2023-04-17T12:29:43.814Z,23.78
2023-04-17T12:30:34.358Z,23.78
2023-04-17T12:31:33.388Z,23.77
2023-04-17T12:32:33.363Z,23.75
2023-04-17T12:33:33.335Z,23.76
2023-04-17T12:34:33.334Z,23.72
2023-04-17T12:35:33.338Z,23.73
2023-04-17T12:36:33.397Z,23.74
2023-04-17T12:37:33.317Z,23.75
2023-04-17T12:38:33.326Z,23.77
2023-04-17T12:39:33.309Z,23.78
2023-04-17T12:40:33.291Z,23.76
2023-04-17T12:41:33.296Z,23.78
2023-04-17T12:42:42.399Z,23.78
2023-04-17T12:43:33.278Z,23.81
2023-04-17T12:44:33.447Z,23.78
2023-04-17T12:45:33.301Z,23.80
2023-04-17T12:46:33.279Z,23.77
2023-04-17T12:47:33.279Z,23.79
2023-04-17T12:48:33.309Z,23.76
2023-04-17T12:49:33.243Z,23.76
2023-04-17T12:50:33.236Z,23.77
2023-04-17T12:51:33.227Z,23.76
2023-04-17T12:52:33.216Z,23.75